sensor_id;sensor_type;location;lat;lon;timestamp;P1;durP1;ratioP1;P2;durP2;ratioP2
26588;SDS011;14235;48.532;8.722;2023-12-04T00:01:47;17.47;;;11.30;;
26588;SDS011;14235;48.532;8.722;2023-12-04T00:04:13;19.00;;;12.37;;
26588;SDS011;14235;48.532;8.722;2023-12-04T00:06:39;17.57;;;11.80;;
26588;SDS011;14235;48.532;8.722;2023-12-04T00:09:06;18.30;;;12.17;;
26588;SDS011;14235;48.532;8.722;2023-12-04T00:11:32;17.17;;;11.57;;
26588;SDS011;14235;48.532;8.722;2023-12-04T00:13:57;16.87;;;11.73;;
26588;SDS011;14235;48.532;8.722;2023-12-04T00:16:23;18.40;;;11.83;;
26588;SDS011;14235;48.532;8.722;2023-12-04T00:18:49;16.60;;;11.50;;
26588;SDS011;14235;48.532;8.722;2023-12-04T00:21:14;21.30;;;11.50;;
26588;SDS011;14235;48.532;8.722;2023-12-04T00:23:40;20.67;;;11.87;;
26588;SDS011;14235;48.532;8.722;2023-12-04T00:26:06;16.30;;;10.87;;
26588;SDS011;14235;48.532;8.722;2023-12-04T00:28:32;16.90;;;11.83;;
26588;SDS011;14235;48.532;8.722;2023-12-04T00:31:00;17.53;;;11.27;;
26588;SDS011;14235;48.532;8.722;2023-12-04T00:33:26;17.20;;;11.67;;
26588;SDS011;14235;48.532;8.722;2023-12-04T00:35:51;16.37;;;11.30;;
26588;SDS011;14235;48.532;8.722;2023-12-04T00:38:17;18.13;;;11.10;;
26588;SDS011;14235;48.532;8.722;2023-12-04T00:40:42;15.57;;;11.10;;
26588;SDS011;14235;48.532;8.722;2023-12-04T00:43:08;17.57;;;11.57;;
26588;SDS011;14235;48.532;8.722;2023-12-04T00:45:33;18.57;;;11.73;;
26588;SDS011;14235;48.532;8.722;2023-12-04T00:47:59;16.13;;;10.77;;
26588;SDS011;14235;48.532;8.722;2023-12-04T00:50:25;15.80;;;10.53;;
26588;SDS011;14235;48.532;8.722;2023-12-04T00:52:50;16.17;;;10.93;;
26588;SDS011;14235;48.532;8.722;2023-12-04T00:55:16;17.00;;;10.80;;
26588;SDS011;14235;48.532;8.722;2023-12-04T00:57:41;17.57;;;10.80;;
26588;SDS011;14235;48.532;8.722;2023-12-04T01:00:07;15.17;;;10.60;;
26588;SDS011;14235;48.532;8.722;2023-12-04T01:02:33;20.47;;;11.50;;
26588;SDS011;14235;48.532;8.722;2023-12-04T01:04:59;18.13;;;11.07;;
26588;SDS011;14235;48.532;8.722;2023-12-04T01:07:24;17.90;;;11.33;;
26588;SDS011;14235;48.532;8.722;2023-12-04T01:09:50;18.37;;;11.70;;
26588;SDS011;14235;48.532;8.722;2023-12-04T01:12:15;17.87;;;11.27;;
26588;SDS011;14235;48.532;8.722;2023-12-04T01:14:41;22.67;;;13.13;;
26588;SDS011;14235;48.532;8.722;2023-12-04T01:17:06;19.40;;;12.40;;
26588;SDS011;14235;48.532;8.722;2023-12-04T01:19:32;16.47;;;10.47;;
26588;SDS011;14235;48.532;8.722;2023-12-04T01:21:58;15.57;;;10.83;;
26588;SDS011;14235;48.532;8.722;2023-12-04T01:24:23;16.50;;;11.13;;
26588;SDS011;14235;48.532;8.722;2023-12-04T01:26:49;15.73;;;11.07;;
26588;SDS011;14235;48.532;8.722;2023-12-04T01:29:14;16.00;;;10.77;;
26588;SDS011;14235;48.532;8.722;2023-12-04T01:31:40;14.90;;;10.17;;
26588;SDS011;14235;48.532;8.722;2023-12-04T01:34:05;17.50;;;11.40;;
26588;SDS011;14235;48.532;8.722;2023-12-04T01:36:31;17.13;;;10.50;;
26588;SDS011;14235;48.532;8.722;2023-12-04T01:38:56;15.50;;;10.67;;
26588;SDS011;14235;48.532;8.722;2023-12-04T01:41:22;16.77;;;11.20;;
26588;SDS011;14235;48.532;8.722;2023-12-04T01:43:48;17.43;;;11.43;;
26588;SDS011;14235;48.532;8.722;2023-12-04T01:46:13;18.07;;;11.17;;
26588;SDS011;14235;48.532;8.722;2023-12-04T01:48:42;13.97;;;9.87;;
26588;SDS011;14235;48.532;8.722;2023-12-04T01:51:09;15.27;;;10.23;;
26588;SDS011;14235;48.532;8.722;2023-12-04T01:53:36;13.47;;;9.97;;
26588;SDS011;14235;48.532;8.722;2023-12-04T01:56:04;15.27;;;9.47;;
26588;SDS011;14235;48.532;8.722;2023-12-04T01:58:30;15.13;;;9.70;;
26588;SDS011;14235;48.532;8.722;2023-12-04T02:00:56;14.13;;;9.67;;
26588;SDS011;14235;48.532;8.722;2023-12-04T02:03:22;15.60;;;10.37;;
26588;SDS011;14235;48.532;8.722;2023-12-04T02:05:48;17.93;;;10.43;;
26588;SDS011;14235;48.532;8.722;2023-12-04T02:08:16;15.47;;;10.00;;
26588;SDS011;14235;48.532;8.722;2023-12-04T02:10:42;16.17;;;10.73;;
26588;SDS011;14235;48.532;8.722;2023-12-04T02:13:07;15.27;;;9.63;;
26588;SDS011;14235;48.532;8.722;2023-12-04T02:15:33;13.20;;;9.17;;
26588;SDS011;14235;48.532;8.722;2023-12-04T02:17:59;14.57;;;9.33;;
26588;SDS011;14235;48.532;8.722;2023-12-04T02:20:32;14.33;;;9.97;;
26588;SDS011;14235;48.532;8.722;2023-12-04T02:22:58;13.87;;;9.33;;
26588;SDS011;14235;48.532;8.722;2023-12-04T02:25:24;15.47;;;9.80;;
26588;SDS011;14235;48.532;8.722;2023-12-04T02:27:50;15.53;;;9.47;;
26588;SDS011;14235;48.532;8.722;2023-12-04T02:30:18;15.70;;;10.00;;
26588;SDS011;14235;48.532;8.722;2023-12-04T02:32:47;16.20;;;10.33;;
26588;SDS011;14235;48.532;8.722;2023-12-04T02:35:14;13.70;;;9.63;;
26588;SDS011;14235;48.532;8.722;2023-12-04T02:37:44;14.50;;;9.70;;
26588;SDS011;14235;48.532;8.722;2023-12-04T02:40:10;14.43;;;9.63;;
26588;SDS011;14235;48.532;8.722;2023-12-04T02:42:37;12.70;;;8.77;;
26588;SDS011;14235;48.532;8.722;2023-12-04T02:45:03;17.17;;;10.63;;
26588;SDS011;14235;48.532;8.722;2023-12-04T02:47:29;15.07;;;10.03;;
26588;SDS011;14235;48.532;8.722;2023-12-04T02:49:54;16.57;;;10.07;;
26588;SDS011;14235;48.532;8.722;2023-12-04T02:52:20;13.77;;;9.83;;
26588;SDS011;14235;48.532;8.722;2023-12-04T02:54:45;16.73;;;10.03;;
26588;SDS011;14235;48.532;8.722;2023-12-04T02:57:11;12.90;;;8.57;;
26588;SDS011;14235;48.532;8.722;2023-12-04T02:59:37;14.00;;;9.20;;
26588;SDS011;14235;48.532;8.722;2023-12-04T03:02:02;15.77;;;9.33;;
26588;SDS011;14235;48.532;8.722;2023-12-04T03:04:28;11.47;;;8.77;;
26588;SDS011;14235;48.532;8.722;2023-12-04T03:06:55;12.80;;;9.23;;
26588;SDS011;14235;48.532;8.722;2023-12-04T03:09:21;14.93;;;9.50;;
26588;SDS011;14235;48.532;8.722;2023-12-04T03:11:46;13.40;;;9.00;;
26588;SDS011;14235;48.532;8.722;2023-12-04T03:14:12;13.87;;;9.00;;
26588;SDS011;14235;48.532;8.722;2023-12-04T03:16:38;15.33;;;9.10;;
26588;SDS011;14235;48.532;8.722;2023-12-04T03:19:03;12.90;;;9.00;;
26588;SDS011;14235;48.532;8.722;2023-12-04T03:21:29;13.37;;;9.23;;
26588;SDS011;14235;48.532;8.722;2023-12-04T03:23:55;12.00;;;8.43;;
26588;SDS011;14235;48.532;8.722;2023-12-04T03:26:20;12.27;;;8.90;;
26588;SDS011;14235;48.532;8.722;2023-12-04T03:28:46;14.63;;;9.70;;
26588;SDS011;14235;48.532;8.722;2023-12-04T03:31:12;20.13;;;10.00;;
26588;SDS011;14235;48.532;8.722;2023-12-04T03:33:38;14.13;;;8.83;;
26588;SDS011;14235;48.532;8.722;2023-12-04T03:36:03;15.63;;;9.83;;
26588;SDS011;14235;48.532;8.722;2023-12-04T03:38:29;13.53;;;9.20;;
26588;SDS011;14235;48.532;8.722;2023-12-04T03:40:55;12.50;;;8.60;;
26588;SDS011;14235;48.532;8.722;2023-12-04T03:43:20;13.37;;;9.43;;
26588;SDS011;14235;48.532;8.722;2023-12-04T03:45:46;13.50;;;8.83;;
26588;SDS011;14235;48.532;8.722;2023-12-04T03:48:12;13.90;;;8.63;;
26588;SDS011;14235;48.532;8.722;2023-12-04T03:50:37;14.93;;;8.93;;
26588;SDS011;14235;48.532;8.722;2023-12-04T03:53:03;14.27;;;8.77;;
26588;SDS011;14235;48.532;8.722;2023-12-04T03:55:29;14.07;;;9.47;;
26588;SDS011;14235;48.532;8.722;2023-12-04T03:57:54;11.33;;;7.83;;
26588;SDS011;14235;48.532;8.722;2023-12-04T04:00:21;12.87;;;8.50;;
26588;SDS011;14235;48.532;8.722;2023-12-04T04:02:48;12.20;;;8.57;;
26588;SDS011;14235;48.532;8.722;2023-12-04T04:05:13;12.27;;;8.47;;
26588;SDS011;14235;48.532;8.722;2023-12-04T04:07:39;12.73;;;8.47;;
26588;SDS011;14235;48.532;8.722;2023-12-04T04:10:05;13.97;;;8.90;;
26588;SDS011;14235;48.532;8.722;2023-12-04T04:12:31;13.03;;;8.73;;
26588;SDS011;14235;48.532;8.722;2023-12-04T04:14:57;12.37;;;9.03;;
26588;SDS011;14235;48.532;8.722;2023-12-04T04:17:23;14.20;;;9.17;;
26588;SDS011;14235;48.532;8.722;2023-12-04T04:19:54;13.90;;;8.83;;
26588;SDS011;14235;48.532;8.722;2023-12-04T04:22:21;11.77;;;7.93;;
26588;SDS011;14235;48.532;8.722;2023-12-04T04:24:47;11.60;;;8.57;;
26588;SDS011;14235;48.532;8.722;2023-12-04T04:27:13;11.93;;;8.13;;
26588;SDS011;14235;48.532;8.722;2023-12-04T04:29:39;12.17;;;8.40;;
26588;SDS011;14235;48.532;8.722;2023-12-04T04:32:05;12.83;;;8.47;;
26588;SDS011;14235;48.532;8.722;2023-12-04T04:34:31;11.97;;;7.90;;
26588;SDS011;14235;48.532;8.722;2023-12-04T04:36:56;15.97;;;8.87;;
26588;SDS011;14235;48.532;8.722;2023-12-04T04:39:22;13.13;;;8.67;;
26588;SDS011;14235;48.532;8.722;2023-12-04T04:41:48;11.90;;;8.60;;
26588;SDS011;14235;48.532;8.722;2023-12-04T04:44:14;12.20;;;8.53;;
26588;SDS011;14235;48.532;8.722;2023-12-04T04:46:39;12.37;;;8.13;;
26588;SDS011;14235;48.532;8.722;2023-12-04T04:49:05;13.30;;;9.03;;
26588;SDS011;14235;48.532;8.722;2023-12-04T04:51:33;14.40;;;9.43;;
26588;SDS011;14235;48.532;8.722;2023-12-04T04:54:02;10.97;;;8.33;;
26588;SDS011;14235;48.532;8.722;2023-12-04T04:56:28;13.53;;;9.00;;
26588;SDS011;14235;48.532;8.722;2023-12-04T04:58:54;17.90;;;9.00;;
26588;SDS011;14235;48.532;8.722;2023-12-04T05:01:20;12.13;;;8.43;;
26588;SDS011;14235;48.532;8.722;2023-12-04T05:03:46;12.87;;;8.87;;
26588;SDS011;14235;48.532;8.722;2023-12-04T05:06:11;13.40;;;9.03;;
26588;SDS011;14235;48.532;8.722;2023-12-04T05:08:37;12.60;;;8.87;;
26588;SDS011;14235;48.532;8.722;2023-12-04T05:11:03;11.50;;;8.50;;
26588;SDS011;14235;48.532;8.722;2023-12-04T05:13:29;11.77;;;8.50;;
26588;SDS011;14235;48.532;8.722;2023-12-04T05:15:54;11.60;;;8.30;;
26588;SDS011;14235;48.532;8.722;2023-12-04T05:18:20;11.07;;;8.23;;
26588;SDS011;14235;48.532;8.722;2023-12-04T05:20:46;11.27;;;8.30;;
26588;SDS011;14235;48.532;8.722;2023-12-04T05:23:11;13.40;;;8.83;;
26588;SDS011;14235;48.532;8.722;2023-12-04T05:25:37;14.27;;;9.53;;
26588;SDS011;14235;48.532;8.722;2023-12-04T05:28:03;11.77;;;8.50;;
26588;SDS011;14235;48.532;8.722;2023-12-04T05:30:29;11.53;;;8.73;;
26588;SDS011;14235;48.532;8.722;2023-12-04T05:32:55;10.70;;;8.33;;
26588;SDS011;14235;48.532;8.722;2023-12-04T05:35:20;10.57;;;8.43;;
26588;SDS011;14235;48.532;8.722;2023-12-04T05:37:46;10.47;;;8.00;;
26588;SDS011;14235;48.532;8.722;2023-12-04T05:40:11;11.97;;;8.40;;
26588;SDS011;14235;48.532;8.722;2023-12-04T05:42:37;13.33;;;8.37;;
26588;SDS011;14235;48.532;8.722;2023-12-04T05:45:03;10.60;;;7.70;;
26588;SDS011;14235;48.532;8.722;2023-12-04T05:47:29;11.30;;;7.73;;
26588;SDS011;14235;48.532;8.722;2023-12-04T05:49:54;14.00;;;8.80;;
26588;SDS011;14235;48.532;8.722;2023-12-04T05:52:20;14.37;;;8.63;;
26588;SDS011;14235;48.532;8.722;2023-12-04T05:54:46;12.60;;;8.17;;
26588;SDS011;14235;48.532;8.722;2023-12-04T05:57:11;11.50;;;8.07;;
26588;SDS011;14235;48.532;8.722;2023-12-04T05:59:37;14.00;;;9.63;;
26588;SDS011;14235;48.532;8.722;2023-12-04T06:02:03;11.83;;;7.83;;
26588;SDS011;14235;48.532;8.722;2023-12-04T06:04:28;13.50;;;8.33;;
26588;SDS011;14235;48.532;8.722;2023-12-04T06:06:54;12.40;;;7.97;;
26588;SDS011;14235;48.532;8.722;2023-12-04T06:09:20;12.33;;;8.17;;
26588;SDS011;14235;48.532;8.722;2023-12-04T06:11:45;10.07;;;7.40;;
26588;SDS011;14235;48.532;8.722;2023-12-04T06:14:11;10.87;;;7.57;;
26588;SDS011;14235;48.532;8.722;2023-12-04T06:16:37;11.50;;;7.87;;
26588;SDS011;14235;48.532;8.722;2023-12-04T06:19:02;11.10;;;8.07;;
26588;SDS011;14235;48.532;8.722;2023-12-04T06:21:29;13.00;;;8.13;;
26588;SDS011;14235;48.532;8.722;2023-12-04T06:23:55;11.70;;;8.10;;
26588;SDS011;14235;48.532;8.722;2023-12-04T06:26:21;14.10;;;9.13;;
26588;SDS011;14235;48.532;8.722;2023-12-04T06:28:47;11.30;;;8.10;;
26588;SDS011;14235;48.532;8.722;2023-12-04T06:31:13;12.80;;;8.43;;
26588;SDS011;14235;48.532;8.722;2023-12-04T06:33:39;11.63;;;8.23;;
26588;SDS011;14235;48.532;8.722;2023-12-04T06:36:05;11.07;;;7.87;;
26588;SDS011;14235;48.532;8.722;2023-12-04T06:38:32;12.53;;;8.20;;
26588;SDS011;14235;48.532;8.722;2023-12-04T06:41:00;12.97;;;8.07;;
26588;SDS011;14235;48.532;8.722;2023-12-04T06:43:26;13.67;;;8.33;;
26588;SDS011;14235;48.532;8.722;2023-12-04T06:45:53;12.07;;;7.97;;
26588;SDS011;14235;48.532;8.722;2023-12-04T06:48:22;13.07;;;8.40;;
26588;SDS011;14235;48.532;8.722;2023-12-04T06:50:48;11.83;;;8.10;;
26588;SDS011;14235;48.532;8.722;2023-12-04T06:53:13;13.27;;;8.93;;
26588;SDS011;14235;48.532;8.722;2023-12-04T06:55:39;11.67;;;8.70;;
26588;SDS011;14235;48.532;8.722;2023-12-04T06:58:04;12.37;;;8.80;;
26588;SDS011;14235;48.532;8.722;2023-12-04T07:00:30;10.53;;;7.60;;
26588;SDS011;14235;48.532;8.722;2023-12-04T07:02:56;11.33;;;7.73;;
26588;SDS011;14235;48.532;8.722;2023-12-04T07:05:21;12.13;;;8.13;;
26588;SDS011;14235;48.532;8.722;2023-12-04T07:07:47;11.87;;;7.97;;
26588;SDS011;14235;48.532;8.722;2023-12-04T07:10:12;11.63;;;8.10;;
26588;SDS011;14235;48.532;8.722;2023-12-04T07:12:40;12.73;;;8.03;;
26588;SDS011;14235;48.532;8.722;2023-12-04T07:15:07;10.80;;;8.00;;
26588;SDS011;14235;48.532;8.722;2023-12-04T07:17:33;11.77;;;8.40;;
26588;SDS011;14235;48.532;8.722;2023-12-04T07:20:00;10.33;;;8.30;;
26588;SDS011;14235;48.532;8.722;2023-12-04T07:22:25;11.20;;;8.20;;
26588;SDS011;14235;48.532;8.722;2023-12-04T07:24:51;11.60;;;8.17;;
26588;SDS011;14235;48.532;8.722;2023-12-04T07:27:16;11.03;;;8.33;;
26588;SDS011;14235;48.532;8.722;2023-12-04T07:29:42;12.23;;;8.73;;
26588;SDS011;14235;48.532;8.722;2023-12-04T07:32:07;11.87;;;8.70;;
26588;SDS011;14235;48.532;8.722;2023-12-04T07:34:33;12.67;;;8.67;;
26588;SDS011;14235;48.532;8.722;2023-12-04T07:36:59;9.90;;;7.63;;
26588;SDS011;14235;48.532;8.722;2023-12-04T07:39:24;13.43;;;8.10;;
26588;SDS011;14235;48.532;8.722;2023-12-04T07:41:50;11.63;;;8.00;;
26588;SDS011;14235;48.532;8.722;2023-12-04T07:44:15;10.90;;;7.93;;
26588;SDS011;14235;48.532;8.722;2023-12-04T07:46:41;10.47;;;7.83;;
26588;SDS011;14235;48.532;8.722;2023-12-04T07:49:07;12.23;;;8.30;;
26588;SDS011;14235;48.532;8.722;2023-12-04T07:51:32;12.17;;;7.87;;
26588;SDS011;14235;48.532;8.722;2023-12-04T07:53:58;11.17;;;7.80;;
26588;SDS011;14235;48.532;8.722;2023-12-04T07:56:23;12.40;;;7.93;;
26588;SDS011;14235;48.532;8.722;2023-12-04T07:58:49;13.30;;;8.80;;
26588;SDS011;14235;48.532;8.722;2023-12-04T08:01:15;13.27;;;7.67;;
26588;SDS011;14235;48.532;8.722;2023-12-04T08:03:41;12.10;;;8.30;;
26588;SDS011;14235;48.532;8.722;2023-12-04T08:06:06;10.10;;;7.73;;
26588;SDS011;14235;48.532;8.722;2023-12-04T08:08:32;10.97;;;7.90;;
26588;SDS011;14235;48.532;8.722;2023-12-04T08:10:57;10.40;;;7.80;;
26588;SDS011;14235;48.532;8.722;2023-12-04T08:13:23;10.43;;;7.30;;
26588;SDS011;14235;48.532;8.722;2023-12-04T08:15:49;10.93;;;8.20;;
26588;SDS011;14235;48.532;8.722;2023-12-04T08:18:14;12.20;;;7.77;;
26588;SDS011;14235;48.532;8.722;2023-12-04T08:20:41;11.50;;;7.70;;
26588;SDS011;14235;48.532;8.722;2023-12-04T08:23:07;9.60;;;7.33;;
26588;SDS011;14235;48.532;8.722;2023-12-04T08:25:33;10.83;;;8.30;;
26588;SDS011;14235;48.532;8.722;2023-12-04T08:28:01;11.20;;;8.50;;
26588;SDS011;14235;48.532;8.722;2023-12-04T08:30:27;11.00;;;8.10;;
26588;SDS011;14235;48.532;8.722;2023-12-04T08:32:53;9.87;;;7.67;;
26588;SDS011;14235;48.532;8.722;2023-12-04T08:35:18;9.77;;;7.50;;
26588;SDS011;14235;48.532;8.722;2023-12-04T08:37:44;10.47;;;7.83;;
26588;SDS011;14235;48.532;8.722;2023-12-04T08:40:10;11.80;;;8.07;;
26588;SDS011;14235;48.532;8.722;2023-12-04T08:42:37;10.83;;;7.53;;
26588;SDS011;14235;48.532;8.722;2023-12-04T08:45:03;10.50;;;7.63;;
26588;SDS011;14235;48.532;8.722;2023-12-04T08:47:30;12.10;;;8.23;;
26588;SDS011;14235;48.532;8.722;2023-12-04T08:49:56;10.00;;;7.20;;
26588;SDS011;14235;48.532;8.722;2023-12-04T08:52:22;14.43;;;7.77;;
26588;SDS011;14235;48.532;8.722;2023-12-04T08:54:47;11.13;;;7.83;;
26588;SDS011;14235;48.532;8.722;2023-12-04T08:57:13;11.87;;;7.57;;
26588;SDS011;14235;48.532;8.722;2023-12-04T08:59:39;11.67;;;8.37;;
26588;SDS011;14235;48.532;8.722;2023-12-04T09:02:04;11.20;;;7.67;;
26588;SDS011;14235;48.532;8.722;2023-12-04T09:04:31;8.93;;;7.23;;
26588;SDS011;14235;48.532;8.722;2023-12-04T09:06:57;9.80;;;7.40;;
26588;SDS011;14235;48.532;8.722;2023-12-04T09:09:22;10.80;;;8.17;;
26588;SDS011;14235;48.532;8.722;2023-12-04T09:11:48;10.70;;;7.90;;
26588;SDS011;14235;48.532;8.722;2023-12-04T09:14:13;13.57;;;7.90;;
26588;SDS011;14235;48.532;8.722;2023-12-04T09:16:39;10.83;;;7.33;;
26588;SDS011;14235;48.532;8.722;2023-12-04T09:19:05;9.17;;;7.23;;
26588;SDS011;14235;48.532;8.722;2023-12-04T09:21:30;11.07;;;7.90;;
26588;SDS011;14235;48.532;8.722;2023-12-04T09:23:56;10.50;;;7.67;;
26588;SDS011;14235;48.532;8.722;2023-12-04T09:26:22;10.23;;;7.83;;
26588;SDS011;14235;48.532;8.722;2023-12-04T09:28:48;10.53;;;7.97;;
26588;SDS011;14235;48.532;8.722;2023-12-04T09:31:13;10.73;;;7.80;;
26588;SDS011;14235;48.532;8.722;2023-12-04T09:33:39;11.97;;;7.97;;
26588;SDS011;14235;48.532;8.722;2023-12-04T09:36:05;12.30;;;7.57;;
26588;SDS011;14235;48.532;8.722;2023-12-04T09:38:30;10.57;;;8.07;;
26588;SDS011;14235;48.532;8.722;2023-12-04T09:40:58;12.23;;;8.30;;
26588;SDS011;14235;48.532;8.722;2023-12-04T09:43:26;11.37;;;8.53;;
26588;SDS011;14235;48.532;8.722;2023-12-04T09:45:53;10.47;;;8.03;;
26588;SDS011;14235;48.532;8.722;2023-12-04T09:48:19;12.93;;;8.87;;
26588;SDS011;14235;48.532;8.722;2023-12-04T09:50:46;10.87;;;8.27;;
26588;SDS011;14235;48.532;8.722;2023-12-04T09:53:12;11.60;;;8.77;;
26588;SDS011;14235;48.532;8.722;2023-12-04T09:55:38;11.33;;;8.77;;
26588;SDS011;14235;48.532;8.722;2023-12-04T09:58:06;11.90;;;8.20;;
26588;SDS011;14235;48.532;8.722;2023-12-04T10:00:33;12.47;;;8.83;;
26588;SDS011;14235;48.532;8.722;2023-12-04T10:03:00;11.20;;;8.53;;
26588;SDS011;14235;48.532;8.722;2023-12-04T10:05:27;11.30;;;8.83;;
26588;SDS011;14235;48.532;8.722;2023-12-04T10:07:52;12.17;;;8.30;;
26588;SDS011;14235;48.532;8.722;2023-12-04T10:10:18;11.93;;;8.60;;
26588;SDS011;14235;48.532;8.722;2023-12-04T10:12:44;10.60;;;8.03;;
26588;SDS011;14235;48.532;8.722;2023-12-04T10:15:10;11.00;;;8.07;;
26588;SDS011;14235;48.532;8.722;2023-12-04T10:17:37;10.97;;;8.23;;
26588;SDS011;14235;48.532;8.722;2023-12-04T10:20:08;11.70;;;8.47;;
26588;SDS011;14235;48.532;8.722;2023-12-04T10:22:55;12.73;;;9.43;;
26588;SDS011;14235;48.532;8.722;2023-12-04T10:25:22;13.30;;;9.23;;
26588;SDS011;14235;48.532;8.722;2023-12-04T10:27:50;11.63;;;8.20;;
26588;SDS011;14235;48.532;8.722;2023-12-04T10:32:53;12.17;;;9.27;;
26588;SDS011;14235;48.532;8.722;2023-12-04T10:35:20;12.40;;;9.53;;
26588;SDS011;14235;48.532;8.722;2023-12-04T10:37:47;13.70;;;9.30;;
26588;SDS011;14235;48.532;8.722;2023-12-04T10:40:22;11.63;;;8.73;;
26588;SDS011;14235;48.532;8.722;2023-12-04T10:42:48;14.27;;;9.47;;
26588;SDS011;14235;48.532;8.722;2023-12-04T10:45:14;14.63;;;9.97;;
26588;SDS011;14235;48.532;8.722;2023-12-04T10:47:39;13.87;;;9.77;;
26588;SDS011;14235;48.532;8.722;2023-12-04T10:50:05;13.83;;;9.07;;
26588;SDS011;14235;48.532;8.722;2023-12-04T10:52:32;10.97;;;8.87;;
26588;SDS011;14235;48.532;8.722;2023-12-04T10:55:00;13.50;;;9.67;;
26588;SDS011;14235;48.532;8.722;2023-12-04T10:57:27;15.20;;;9.63;;
26588;SDS011;14235;48.532;8.722;2023-12-04T10:59:57;11.90;;;8.60;;
26588;SDS011;14235;48.532;8.722;2023-12-04T11:02:26;13.00;;;9.03;;
26588;SDS011;14235;48.532;8.722;2023-12-04T11:04:58;14.03;;;9.80;;
26588;SDS011;14235;48.532;8.722;2023-12-04T11:07:30;11.50;;;8.93;;
26588;SDS011;14235;48.532;8.722;2023-12-04T11:09:57;12.77;;;9.03;;
26588;SDS011;14235;48.532;8.722;2023-12-04T11:12:25;11.60;;;8.90;;
26588;SDS011;14235;48.532;8.722;2023-12-04T11:14:56;10.73;;;8.00;;
26588;SDS011;14235;48.532;8.722;2023-12-04T11:17:27;10.53;;;7.77;;
26588;SDS011;14235;48.532;8.722;2023-12-04T11:19:59;11.97;;;8.40;;
26588;SDS011;14235;48.532;8.722;2023-12-04T11:22:32;10.47;;;8.20;;
26588;SDS011;14235;48.532;8.722;2023-12-04T11:25:00;10.63;;;7.97;;
26588;SDS011;14235;48.532;8.722;2023-12-04T11:27:30;12.03;;;8.27;;
26588;SDS011;14235;48.532;8.722;2023-12-04T11:29:56;12.13;;;8.30;;
26588;SDS011;14235;48.532;8.722;2023-12-04T11:32:24;10.77;;;8.47;;
26588;SDS011;14235;48.532;8.722;2023-12-04T11:34:55;12.07;;;8.47;;
26588;SDS011;14235;48.532;8.722;2023-12-04T11:37:24;9.13;;;7.53;;
26588;SDS011;14235;48.532;8.722;2023-12-04T11:39:50;12.30;;;8.20;;
26588;SDS011;14235;48.532;8.722;2023-12-04T11:42:21;11.17;;;7.93;;
26588;SDS011;14235;48.532;8.722;2023-12-04T11:44:48;12.17;;;8.50;;
26588;SDS011;14235;48.532;8.722;2023-12-04T11:47:15;12.33;;;9.00;;
26588;SDS011;14235;48.532;8.722;2023-12-04T11:49:40;11.10;;;8.27;;
26588;SDS011;14235;48.532;8.722;2023-12-04T11:52:06;10.73;;;8.43;;
26588;SDS011;14235;48.532;8.722;2023-12-04T11:57:24;11.80;;;8.10;;
26588;SDS011;14235;48.532;8.722;2023-12-04T11:59:51;12.87;;;8.80;;
26588;SDS011;14235;48.532;8.722;2023-12-04T12:02:17;11.60;;;8.27;;
26588;SDS011;14235;48.532;8.722;2023-12-04T12:04:43;11.07;;;8.43;;
26588;SDS011;14235;48.532;8.722;2023-12-04T12:07:10;10.07;;;7.73;;
26588;SDS011;14235;48.532;8.722;2023-12-04T12:09:36;11.70;;;8.27;;
26588;SDS011;14235;48.532;8.722;2023-12-04T12:12:03;12.77;;;9.37;;
26588;SDS011;14235;48.532;8.722;2023-12-04T12:14:29;10.60;;;8.70;;
26588;SDS011;14235;48.532;8.722;2023-12-04T12:16:55;13.93;;;10.20;;
26588;SDS011;14235;48.532;8.722;2023-12-04T12:19:23;13.60;;;10.27;;
26588;SDS011;14235;48.532;8.722;2023-12-04T12:21:49;14.03;;;9.80;;
26588;SDS011;14235;48.532;8.722;2023-12-04T12:24:16;10.93;;;7.87;;
26588;SDS011;14235;48.532;8.722;2023-12-04T12:26:42;11.27;;;8.27;;
26588;SDS011;14235;48.532;8.722;2023-12-04T12:29:08;9.70;;;7.60;;
26588;SDS011;14235;48.532;8.722;2023-12-04T12:31:34;11.13;;;8.27;;
26588;SDS011;14235;48.532;8.722;2023-12-04T12:34:00;8.73;;;7.53;;
26588;SDS011;14235;48.532;8.722;2023-12-04T12:36:25;12.00;;;8.23;;
26588;SDS011;14235;48.532;8.722;2023-12-04T12:38:51;11.17;;;7.67;;
26588;SDS011;14235;48.532;8.722;2023-12-04T12:41:17;11.63;;;8.50;;
26588;SDS011;14235;48.532;8.722;2023-12-04T12:43:43;11.13;;;8.20;;
26588;SDS011;14235;48.532;8.722;2023-12-04T12:46:09;10.00;;;7.87;;
26588;SDS011;14235;48.532;8.722;2023-12-04T12:48:35;10.50;;;8.20;;
26588;SDS011;14235;48.532;8.722;2023-12-04T12:51:04;11.57;;;7.90;;
26588;SDS011;14235;48.532;8.722;2023-12-04T12:53:34;10.57;;;8.20;;
26588;SDS011;14235;48.532;8.722;2023-12-04T12:56:00;9.90;;;8.00;;
26588;SDS011;14235;48.532;8.722;2023-12-04T12:58:28;11.77;;;7.93;;
26588;SDS011;14235;48.532;8.722;2023-12-04T13:00:54;11.53;;;8.43;;
26588;SDS011;14235;48.532;8.722;2023-12-04T13:03:20;11.80;;;8.83;;
26588;SDS011;14235;48.532;8.722;2023-12-04T13:05:46;12.03;;;9.13;;
26588;SDS011;14235;48.532;8.722;2023-12-04T13:08:12;12.13;;;8.60;;
26588;SDS011;14235;48.532;8.722;2023-12-04T13:10:38;14.03;;;10.00;;
26588;SDS011;14235;48.532;8.722;2023-12-04T13:13:04;13.80;;;10.13;;
26588;SDS011;14235;48.532;8.722;2023-12-04T13:15:34;13.20;;;9.50;;
26588;SDS011;14235;48.532;8.722;2023-12-04T13:18:00;11.77;;;8.70;;
26588;SDS011;14235;48.532;8.722;2023-12-04T13:20:25;12.67;;;9.40;;
26588;SDS011;14235;48.532;8.722;2023-12-04T13:22:51;12.67;;;8.80;;
26588;SDS011;14235;48.532;8.722;2023-12-04T13:25:16;11.20;;;8.53;;
26588;SDS011;14235;48.532;8.722;2023-12-04T13:27:42;11.17;;;8.57;;
26588;SDS011;14235;48.532;8.722;2023-12-04T13:30:08;9.77;;;7.70;;
26588;SDS011;14235;48.532;8.722;2023-12-04T13:32:37;10.97;;;8.20;;
26588;SDS011;14235;48.532;8.722;2023-12-04T13:35:03;10.37;;;8.53;;
26588;SDS011;14235;48.532;8.722;2023-12-04T13:37:33;11.20;;;8.53;;
26588;SDS011;14235;48.532;8.722;2023-12-04T13:40:01;12.07;;;8.97;;
26588;SDS011;14235;48.532;8.722;2023-12-04T13:42:31;11.63;;;8.77;;
26588;SDS011;14235;48.532;8.722;2023-12-04T13:45:18;12.00;;;8.70;;
26588;SDS011;14235;48.532;8.722;2023-12-04T13:47:48;14.63;;;9.07;;
26588;SDS011;14235;48.532;8.722;2023-12-04T13:50:14;16.30;;;10.80;;
26588;SDS011;14235;48.532;8.722;2023-12-04T13:52:40;19.67;;;13.00;;
26588;SDS011;14235;48.532;8.722;2023-12-04T13:55:08;15.33;;;11.43;;
26588;SDS011;14235;48.532;8.722;2023-12-04T13:57:45;14.27;;;9.00;;
26588;SDS011;14235;48.532;8.722;2023-12-04T14:00:35;12.30;;;9.33;;
26588;SDS011;14235;48.532;8.722;2023-12-04T14:03:01;14.10;;;10.73;;
26588;SDS011;14235;48.532;8.722;2023-12-04T14:05:31;14.60;;;10.87;;
26588;SDS011;14235;48.532;8.722;2023-12-04T14:07:56;14.70;;;10.27;;
26588;SDS011;14235;48.532;8.722;2023-12-04T14:10:23;14.23;;;11.33;;
26588;SDS011;14235;48.532;8.722;2023-12-04T14:12:52;18.33;;;12.30;;
26588;SDS011;14235;48.532;8.722;2023-12-04T14:15:19;19.87;;;12.90;;
26588;SDS011;14235;48.532;8.722;2023-12-04T14:17:45;17.50;;;11.97;;
26588;SDS011;14235;48.532;8.722;2023-12-04T14:20:11;13.30;;;9.43;;
26588;SDS011;14235;48.532;8.722;2023-12-04T14:22:43;13.30;;;9.23;;
26588;SDS011;14235;48.532;8.722;2023-12-04T14:25:10;12.97;;;9.23;;
26588;SDS011;14235;48.532;8.722;2023-12-04T14:27:36;15.13;;;10.33;;
26588;SDS011;14235;48.532;8.722;2023-12-04T14:30:05;13.20;;;9.60;;
26588;SDS011;14235;48.532;8.722;2023-12-04T14:32:34;12.87;;;9.70;;
26588;SDS011;14235;48.532;8.722;2023-12-04T14:35:01;13.03;;;9.83;;